sensor_id;sensor_type;location;lat;lon;timestamp;temperature;humidity
10911;DHT22;5508;49.150;11.030;2022-07-12T00:02:37;12.50;99.90
10911;DHT22;5508;49.150;11.030;2022-07-12T00:05:38;12.50;99.90
10911;DHT22;5508;49.150;11.030;2022-07-12T00:08:39;12.30;99.90
10911;DHT22;5508;49.150;11.030;2022-07-12T00:11:39;12.20;99.90
10911;DHT22;5508;49.150;11.030;2022-07-12T00:14:40;12.10;99.90
10911;DHT22;5508;49.150;11.030;2022-07-12T00:17:40;12.10;99.90
10911;DHT22;5508;49.150;11.030;2022-07-12T00:20:41;12.00;99.90
10911;DHT22;5508;49.150;11.030;2022-07-12T00:23:41;12.00;99.90
10911;DHT22;5508;49.150;11.030;2022-07-12T00:26:42;12.00;99.90
10911;DHT22;5508;49.150;11.030;2022-07-12T00:29:42;12.00;99.90
10911;DHT22;5508;49.150;11.030;2022-07-12T00:32:43;11.80;99.90
10911;DHT22;5508;49.150;11.030;2022-07-12T00:35:44;11.70;99.90
10911;DHT22;5508;49.150;11.030;2022-07-12T00:38:44;11.60;99.90
10911;DHT22;5508;49.150;11.030;2022-07-12T00:41:48;11.50;99.90
10911;DHT22;5508;49.150;11.030;2022-07-12T00:44:49;11.60;99.90
10911;DHT22;5508;49.150;11.030;2022-07-12T00:47:50;11.50;99.90
10911;DHT22;5508;49.150;11.030;2022-07-12T00:50:51;11.50;99.90
10911;DHT22;5508;49.150;11.030;2022-07-12T00:53:52;11.40;99.90
10911;DHT22;5508;49.150;11.030;2022-07-12T00:56:54;11.40;99.90
10911;DHT22;5508;49.150;11.030;2022-07-12T00:59:54;11.30;99.90
10911;DHT22;5508;49.150;11.030;2022-07-12T01:02:56;11.30;99.90
10911;DHT22;5508;49.150;11.030;2022-07-12T01:05:57;11.20;99.90
10911;DHT22;5508;49.150;11.030;2022-07-12T01:08:58;11.20;99.90
10911;DHT22;5508;49.150;11.030;2022-07-12T01:12:01;11.20;99.90
10911;DHT22;5508;49.150;11.030;2022-07-12T01:15:07;11.10;99.90
10911;DHT22;5508;49.150;11.030;2022-07-12T01:18:09;11.10;99.90
10911;DHT22;5508;49.150;11.030;2022-07-12T01:21:15;11.00;99.90
10911;DHT22;5508;49.150;11.030;2022-07-12T01:24:18;10.90;99.90
10911;DHT22;5508;49.150;11.030;2022-07-12T01:27:19;10.80;99.90
10911;DHT22;5508;49.150;11.030;2022-07-12T01:30:20;10.90;99.90
10911;DHT22;5508;49.150;11.030;2022-07-12T01:33:20;10.80;99.90
10911;DHT22;5508;49.150;11.030;2022-07-12T01:36:21;10.80;99.90
10911;DHT22;5508;49.150;11.030;2022-07-12T01:39:21;10.80;99.90
10911;DHT22;5508;49.150;11.030;2022-07-12T01:42:24;10.70;99.90
10911;DHT22;5508;49.150;11.030;2022-07-12T01:45:25;10.70;99.90
10911;DHT22;5508;49.150;11.030;2022-07-12T01:48:25;10.70;99.90
10911;DHT22;5508;49.150;11.030;2022-07-12T01:51:26;10.60;99.90
10911;DHT22;5508;49.150;11.030;2022-07-12T01:54:26;10.60;99.90
10911;DHT22;5508;49.150;11.030;2022-07-12T01:57:27;10.50;99.90
10911;DHT22;5508;49.150;11.030;2022-07-12T02:00:29;10.50;99.90
10911;DHT22;5508;49.150;11.030;2022-07-12T02:03:29;10.40;99.90
10911;DHT22;5508;49.150;11.030;2022-07-12T02:06:30;10.30;99.90
10911;DHT22;5508;49.150;11.030;2022-07-12T02:09:31;10.40;99.90
10911;DHT22;5508;49.150;11.030;2022-07-12T02:12:32;10.30;99.90
10911;DHT22;5508;49.150;11.030;2022-07-12T02:15:33;10.30;99.90
10911;DHT22;5508;49.150;11.030;2022-07-12T02:18:33;10.30;99.90
10911;DHT22;5508;49.150;11.030;2022-07-12T02:21:34;10.30;99.90
10911;DHT22;5508;49.150;11.030;2022-07-12T02:24:34;10.20;99.90
10911;DHT22;5508;49.150;11.030;2022-07-12T02:27:35;10.20;99.90
10911;DHT22;5508;49.150;11.030;2022-07-12T02:30:36;10.20;99.90
10911;DHT22;5508;49.150;11.030;2022-07-12T02:33:36;10.10;99.90
10911;DHT22;5508;49.150;11.030;2022-07-12T02:36:37;10.10;99.90
10911;DHT22;5508;49.150;11.030;2022-07-12T02:39:37;10.00;99.90
10911;DHT22;5508;49.150;11.030;2022-07-12T02:42:38;9.90;99.90
10911;DHT22;5508;49.150;11.030;2022-07-12T02:45:39;9.90;99.90
10911;DHT22;5508;49.150;11.030;2022-07-12T02:48:41;9.90;99.90
10911;DHT22;5508;49.150;11.030;2022-07-12T02:51:41;9.90;99.90
10911;DHT22;5508;49.150;11.030;2022-07-12T02:54:42;10.00;99.90
10911;DHT22;5508;49.150;11.030;2022-07-12T02:57:42;9.90;99.90
10911;DHT22;5508;49.150;11.030;2022-07-12T03:00:43;9.90;99.90
10911;DHT22;5508;49.150;11.030;2022-07-12T03:03:45;9.90;99.90
10911;DHT22;5508;49.150;11.030;2022-07-12T03:06:45;9.80;99.90
10911;DHT22;5508;49.150;11.030;2022-07-12T03:09:46;9.80;99.90
10911;DHT22;5508;49.150;11.030;2022-07-12T03:12:46;9.80;99.90
10911;DHT22;5508;49.150;11.030;2022-07-12T03:15:47;9.80;99.90
10911;DHT22;5508;49.150;11.030;2022-07-12T03:18:47;9.80;99.90
10911;DHT22;5508;49.150;11.030;2022-07-12T03:21:48;9.80;99.90
10911;DHT22;5508;49.150;11.030;2022-07-12T03:24:49;9.80;99.90
10911;DHT22;5508;49.150;11.030;2022-07-12T03:27:50;9.70;99.90
10911;DHT22;5508;49.150;11.030;2022-07-12T03:30:50;9.80;99.90
10911;DHT22;5508;49.150;11.030;2022-07-12T03:33:51;9.70;99.90
10911;DHT22;5508;49.150;11.030;2022-07-12T03:36:52;9.80;99.90
10911;DHT22;5508;49.150;11.030;2022-07-12T03:39:53;9.80;99.90
10911;DHT22;5508;49.150;11.030;2022-07-12T03:42:53;9.80;99.90
10911;DHT22;5508;49.150;11.030;2022-07-12T03:45:54;9.80;99.90
10911;DHT22;5508;49.150;11.030;2022-07-12T03:48:55;9.90;99.90
10911;DHT22;5508;49.150;11.030;2022-07-12T03:51:55;9.90;99.90
10911;DHT22;5508;49.150;11.030;2022-07-12T03:54:56;9.90;99.90
10911;DHT22;5508;49.150;11.030;2022-07-12T03:57:56;9.90;99.90
10911;DHT22;5508;49.150;11.030;2022-07-12T04:00:57;10.00;99.90
10911;DHT22;5508;49.150;11.030;2022-07-12T04:03:57;10.20;99.90
10911;DHT22;5508;49.150;11.030;2022-07-12T04:06:58;10.40;99.90
10911;DHT22;5508;49.150;11.030;2022-07-12T04:09:58;10.50;99.90
10911;DHT22;5508;49.150;11.030;2022-07-12T04:12:59;10.60;99.90
10911;DHT22;5508;49.150;11.030;2022-07-12T04:16:00;10.70;99.90
10911;DHT22;5508;49.150;11.030;2022-07-12T04:19:01;10.80;99.90
10911;DHT22;5508;49.150;11.030;2022-07-12T04:22:01;10.90;99.90
10911;DHT22;5508;49.150;11.030;2022-07-12T04:25:02;11.00;99.90
10911;DHT22;5508;49.150;11.030;2022-07-12T04:28:02;11.10;99.90
10911;DHT22;5508;49.150;11.030;2022-07-12T04:31:03;11.20;99.90
10911;DHT22;5508;49.150;11.030;2022-07-12T04:34:04;11.30;99.90
10911;DHT22;5508;49.150;11.030;2022-07-12T04:37:04;11.50;99.90
10911;DHT22;5508;49.150;11.030;2022-07-12T04:40:05;11.50;99.90
10911;DHT22;5508;49.150;11.030;2022-07-12T04:43:06;11.50;99.90
10911;DHT22;5508;49.150;11.030;2022-07-12T04:46:10;11.50;99.90
10911;DHT22;5508;49.150;11.030;2022-07-12T04:49:10;11.50;99.90
10911;DHT22;5508;49.150;11.030;2022-07-12T04:52:11;11.60;99.90
10911;DHT22;5508;49.150;11.030;2022-07-12T04:55:12;11.60;99.90
10911;DHT22;5508;49.150;11.030;2022-07-12T04:58:12;11.80;99.90
10911;DHT22;5508;49.150;11.030;2022-07-12T05:01:13;11.80;99.90
10911;DHT22;5508;49.150;11.030;2022-07-12T05:04:13;11.90;99.90
10911;DHT22;5508;49.150;11.030;2022-07-12T05:07:14;11.90;99.90
10911;DHT22;5508;49.150;11.030;2022-07-12T05:10:14;11.90;99.90
10911;DHT22;5508;49.150;11.030;2022-07-12T05:13:15;12.00;99.90
10911;DHT22;5508;49.150;11.030;2022-07-12T05:16:15;12.20;99.90
10911;DHT22;5508;49.150;11.030;2022-07-12T05:19:17;12.30;99.90
10911;DHT22;5508;49.150;11.030;2022-07-12T05:22:17;12.60;99.90
10911;DHT22;5508;49.150;11.030;2022-07-12T05:25:18;12.70;99.90
10911;DHT22;5508;49.150;11.030;2022-07-12T05:28:19;12.80;99.90
10911;DHT22;5508;49.150;11.030;2022-07-12T05:31:19;13.10;99.90
10911;DHT22;5508;49.150;11.030;2022-07-12T05:34:20;13.30;99.30
10911;DHT22;5508;49.150;11.030;2022-07-12T05:37:20;13.50;99.90
10911;DHT22;5508;49.150;11.030;2022-07-12T05:40:21;13.60;99.00
10911;DHT22;5508;49.150;11.030;2022-07-12T05:43:21;13.90;98.60
10911;DHT22;5508;49.150;11.030;2022-07-12T05:46:22;14.10;96.10
10911;DHT22;5508;49.150;11.030;2022-07-12T05:49:22;14.20;96.40
10911;DHT22;5508;49.150;11.030;2022-07-12T05:52:23;14.30;96.70
10911;DHT22;5508;49.150;11.030;2022-07-12T05:55:42;14.40;97.80
10911;DHT22;5508;49.150;11.030;2022-07-12T05:58:45;14.40;96.60
10911;DHT22;5508;49.150;11.030;2022-07-12T06:01:45;14.60;96.40
10911;DHT22;5508;49.150;11.030;2022-07-12T06:04:46;14.70;95.90
10911;DHT22;5508;49.150;11.030;2022-07-12T06:07:46;14.90;95.30
10911;DHT22;5508;49.150;11.030;2022-07-12T06:10:47;15.10;92.50
10911;DHT22;5508;49.150;11.030;2022-07-12T06:13:48;15.20;93.30
10911;DHT22;5508;49.150;11.030;2022-07-12T06:16:49;15.30;92.10
10911;DHT22;5508;49.150;11.030;2022-07-12T06:19:50;15.30;92.50
10911;DHT22;5508;49.150;11.030;2022-07-12T06:22:50;15.40;91.70
10911;DHT22;5508;49.150;11.030;2022-07-12T06:25:51;15.50;90.00
10911;DHT22;5508;49.150;11.030;2022-07-12T06:28:51;15.60;90.60
10911;DHT22;5508;49.150;11.030;2022-07-12T06:31:52;15.70;88.80
10911;DHT22;5508;49.150;11.030;2022-07-12T06:34:52;15.90;87.90
10911;DHT22;5508;49.150;11.030;2022-07-12T06:37:53;16.20;88.00
10911;DHT22;5508;49.150;11.030;2022-07-12T06:40:53;16.40;83.20
10911;DHT22;5508;49.150;11.030;2022-07-12T06:43:54;16.50;83.50
10911;DHT22;5508;49.150;11.030;2022-07-12T06:46:55;16.60;81.40
10911;DHT22;5508;49.150;11.030;2022-07-12T06:49:55;16.70;81.50
10911;DHT22;5508;49.150;11.030;2022-07-12T06:52:57;16.70;81.30
10911;DHT22;5508;49.150;11.030;2022-07-12T06:55:58;17.00;80.60
10911;DHT22;5508;49.150;11.030;2022-07-12T06:58:58;17.10;78.70
10911;DHT22;5508;49.150;11.030;2022-07-12T07:01:59;17.40;76.50
10911;DHT22;5508;49.150;11.030;2022-07-12T07:05:00;17.60;73.20
10911;DHT22;5508;49.150;11.030;2022-07-12T07:08:00;17.80;74.10
10911;DHT22;5508;49.150;11.030;2022-07-12T07:11:01;17.90;73.70
10911;DHT22;5508;49.150;11.030;2022-07-12T07:14:02;18.20;72.30
10911;DHT22;5508;49.150;11.030;2022-07-12T07:17:02;18.30;73.00
10911;DHT22;5508;49.150;11.030;2022-07-12T07:20:03;18.30;72.10
10911;DHT22;5508;49.150;11.030;2022-07-12T07:23:04;18.40;70.60
10911;DHT22;5508;49.150;11.030;2022-07-12T07:26:05;18.40;70.90
10911;DHT22;5508;49.150;11.030;2022-07-12T07:29:05;18.50;69.70
10911;DHT22;5508;49.150;11.030;2022-07-12T07:32:24;18.60;69.10
10911;DHT22;5508;49.150;11.030;2022-07-12T07:35:25;19.10;67.50
10911;DHT22;5508;49.150;11.030;2022-07-12T07:38:25;19.30;64.00
10911;DHT22;5508;49.150;11.030;2022-07-12T07:41:26;19.30;61.50
10911;DHT22;5508;49.150;11.030;2022-07-12T07:44:27;19.40;64.80
10911;DHT22;5508;49.150;11.030;2022-07-12T07:47:28;19.50;64.20
10911;DHT22;5508;49.150;11.030;2022-07-12T07:50:28;19.90;63.20
10911;DHT22;5508;49.150;11.030;2022-07-12T07:53:30;20.20;62.30
10911;DHT22;5508;49.150;11.030;2022-07-12T07:56:30;20.20;61.60
10911;DHT22;5508;49.150;11.030;2022-07-12T07:59:31;20.30;61.50
10911;DHT22;5508;49.150;11.030;2022-07-12T08:02:31;20.20;59.60
10911;DHT22;5508;49.150;11.030;2022-07-12T08:05:32;20.20;59.90
10911;DHT22;5508;49.150;11.030;2022-07-12T08:08:32;20.30;61.10
10911;DHT22;5508;49.150;11.030;2022-07-12T08:11:33;20.40;60.80
10911;DHT22;5508;49.150;11.030;2022-07-12T08:14:34;20.70;58.10
10911;DHT22;5508;49.150;11.030;2022-07-12T08:17:34;20.70;59.50
10911;DHT22;5508;49.150;11.030;2022-07-12T08:20:37;20.90;56.80
10911;DHT22;5508;49.150;11.030;2022-07-12T08:23:37;21.00;56.70
10911;DHT22;5508;49.150;11.030;2022-07-12T08:26:38;20.10;56.90
10911;DHT22;5508;49.150;11.030;2022-07-12T08:29:40;20.60;57.70
10911;DHT22;5508;49.150;11.030;2022-07-12T08:32:44;20.40;57.10
10911;DHT22;5508;49.150;11.030;2022-07-12T08:35:45;20.40;54.30
10911;DHT22;5508;49.150;11.030;2022-07-12T08:38:46;20.80;55.20
10911;DHT22;5508;49.150;11.030;2022-07-12T08:41:46;21.10;50.50
10911;DHT22;5508;49.150;11.030;2022-07-12T08:44:57;20.90;51.30
10911;DHT22;5508;49.150;11.030;2022-07-12T08:47:57;20.70;51.20
10911;DHT22;5508;49.150;11.030;2022-07-12T08:51:03;20.70;51.60
10911;DHT22;5508;49.150;11.030;2022-07-12T08:54:12;20.90;51.50
10911;DHT22;5508;49.150;11.030;2022-07-12T08:57:28;21.20;48.20
10911;DHT22;5508;49.150;11.030;2022-07-12T09:03:30;21.90;48.00
10911;DHT22;5508;49.150;11.030;2022-07-12T09:06:31;22.10;48.20
10911;DHT22;5508;49.150;11.030;2022-07-12T09:09:35;22.50;47.40
10911;DHT22;5508;49.150;11.030;2022-07-12T09:15:37;23.10;45.90
10911;DHT22;5508;49.150;11.030;2022-07-12T09:18:37;23.20;47.30
10911;DHT22;5508;49.150;11.030;2022-07-12T09:21:49;22.80;46.50
10911;DHT22;5508;49.150;11.030;2022-07-12T09:24:50;22.60;46.30
10911;DHT22;5508;49.150;11.030;2022-07-12T09:27:56;22.00;48.90
10911;DHT22;5508;49.150;11.030;2022-07-12T09:30:56;22.00;48.80
10911;DHT22;5508;49.150;11.030;2022-07-12T09:34:01;21.90;48.50
10911;DHT22;5508;49.150;11.030;2022-07-12T09:37:20;21.50;50.20
10911;DHT22;5508;49.150;11.030;2022-07-12T09:40:21;21.60;49.20
10911;DHT22;5508;49.150;11.030;2022-07-12T09:43:22;21.50;50.50
10911;DHT22;5508;49.150;11.030;2022-07-12T09:46:23;21.50;49.30
10911;DHT22;5508;49.150;11.030;2022-07-12T09:49:26;21.40;51.30
10911;DHT22;5508;49.150;11.030;2022-07-12T09:52:28;21.70;50.20
10911;DHT22;5508;49.150;11.030;2022-07-12T09:55:30;21.70;49.40
10911;DHT22;5508;49.150;11.030;2022-07-12T09:59:01;21.60;48.50
10911;DHT22;5508;49.150;11.030;2022-07-12T10:02:01;22.00;48.40
10911;DHT22;5508;49.150;11.030;2022-07-12T10:05:05;22.40;48.60
10911;DHT22;5508;49.150;11.030;2022-07-12T10:08:07;22.70;47.50
10911;DHT22;5508;49.150;11.030;2022-07-12T10:11:08;22.90;46.40
10911;DHT22;5508;49.150;11.030;2022-07-12T10:14:12;22.90;46.00
10911;DHT22;5508;49.150;11.030;2022-07-12T10:17:13;23.20;43.30
10911;DHT22;5508;49.150;11.030;2022-07-12T10:20:19;23.10;40.00
10911;DHT22;5508;49.150;11.030;2022-07-12T10:23:35;23.00;44.70
10911;DHT22;5508;49.150;11.030;2022-07-12T10:26:38;23.40;43.30
10911;DHT22;5508;49.150;11.030;2022-07-12T10:29:50;23.00;45.30
10911;DHT22;5508;49.150;11.030;2022-07-12T10:32:56;22.70;44.60
10911;DHT22;5508;49.150;11.030;2022-07-12T10:36:03;22.20;45.60
10911;DHT22;5508;49.150;11.030;2022-07-12T10:39:12;22.10;45.00
10911;DHT22;5508;49.150;11.030;2022-07-12T10:42:15;22.40;45.70
10911;DHT22;5508;49.150;11.030;2022-07-12T10:45:16;22.90;43.50
10911;DHT22;5508;49.150;11.030;2022-07-12T10:51:18;23.20;44.40
10911;DHT22;5508;49.150;11.030;2022-07-12T10:54:22;23.10;42.60
10911;DHT22;5508;49.150;11.030;2022-07-12T10:57:47;22.80;43.00
10911;DHT22;5508;49.150;11.030;2022-07-12T11:00:51;22.50;44.90
10911;DHT22;5508;49.150;11.030;2022-07-12T11:04:04;22.80;44.00
10911;DHT22;5508;49.150;11.030;2022-07-12T11:07:05;23.10;44.40
10911;DHT22;5508;49.150;11.030;2022-07-12T11:10:06;23.30;42.60
10911;DHT22;5508;49.150;11.030;2022-07-12T11:13:20;23.80;43.50
10911;DHT22;5508;49.150;11.030;2022-07-12T11:16:23;24.00;41.90
10911;DHT22;5508;49.150;11.030;2022-07-12T11:19:28;23.70;40.20
10911;DHT22;5508;49.150;11.030;2022-07-12T11:22:29;23.00;42.50
10911;DHT22;5508;49.150;11.030;2022-07-12T11:25:31;23.00;41.90
10911;DHT22;5508;49.150;11.030;2022-07-12T11:28:32;23.50;39.20
10911;DHT22;5508;49.150;11.030;2022-07-12T11:31:32;23.70;38.60
10911;DHT22;5508;49.150;11.030;2022-07-12T11:34:34;23.70;41.10
10911;DHT22;5508;49.150;11.030;2022-07-12T11:37:35;24.10;39.00
10911;DHT22;5508;49.150;11.030;2022-07-12T11:40:35;24.20;39.30
10911;DHT22;5508;49.150;11.030;2022-07-12T11:43:37;24.10;38.70
10911;DHT22;5508;49.150;11.030;2022-07-12T11:46:38;23.80;39.90
10911;DHT22;5508;49.150;11.030;2022-07-12T11:49:46;24.10;39.50
10911;DHT22;5508;49.150;11.030;2022-07-12T11:52:47;24.20;39.10
10911;DHT22;5508;49.150;11.030;2022-07-12T11:55:50;24.30;39.60
10911;DHT22;5508;49.150;11.030;2022-07-12T11:58:57;24.40;39.00
10911;DHT22;5508;49.150;11.030;2022-07-12T12:02:10;24.70;37.70
10911;DHT22;5508;49.150;11.030;2022-07-12T12:05:11;24.80;36.70
10911;DHT22;5508;49.150;11.030;2022-07-12T12:08:13;24.50;37.90
10911;DHT22;5508;49.150;11.030;2022-07-12T12:11:15;24.20;37.40
10911;DHT22;5508;49.150;11.030;2022-07-12T12:14:15;24.00;36.90
10911;DHT22;5508;49.150;11.030;2022-07-12T12:17:16;24.00;38.50
10911;DHT22;5508;49.150;11.030;2022-07-12T12:20:19;24.10;37.60
10911;DHT22;5508;49.150;11.030;2022-07-12T12:23:20;24.50;36.80
10911;DHT22;5508;49.150;11.030;2022-07-12T12:26:23;24.60;37.10
10911;DHT22;5508;49.150;11.030;2022-07-12T12:29:40;24.90;39.00
10911;DHT22;5508;49.150;11.030;2022-07-12T12:32:55;24.90;36.20
10911;DHT22;5508;49.150;11.030;2022-07-12T12:35:56;24.80;37.00
10911;DHT22;5508;49.150;11.030;2022-07-12T12:39:00;24.90;34.90
10911;DHT22;5508;49.150;11.030;2022-07-12T12:42:01;24.90;36.80
10911;DHT22;5508;49.150;11.030;2022-07-12T12:45:02;25.00;35.40
10911;DHT22;5508;49.150;11.030;2022-07-12T12:48:04;25.20;36.00
10911;DHT22;5508;49.150;11.030;2022-07-12T12:54:06;25.40;35.40
10911;DHT22;5508;49.150;11.030;2022-07-12T12:57:09;25.20;35.00
10911;DHT22;5508;49.150;11.030;2022-07-12T13:00:10;25.10;36.10
10911;DHT22;5508;49.150;11.030;2022-07-12T13:03:12;25.30;36.00
10911;DHT22;5508;49.150;11.030;2022-07-12T13:06:13;25.60;33.90
10911;DHT22;5508;49.150;11.030;2022-07-12T13:09:14;25.50;33.60
10911;DHT22;5508;49.150;11.030;2022-07-12T13:12:14;25.40;34.30
10911;DHT22;5508;49.150;11.030;2022-07-12T13:15:15;25.20;34.80
10911;DHT22;5508;49.150;11.030;2022-07-12T13:18:16;25.30;35.30
10911;DHT22;5508;49.150;11.030;2022-07-12T13:21:16;25.20;35.30
10911;DHT22;5508;49.150;11.030;2022-07-12T13:24:18;25.30;34.50
10911;DHT22;5508;49.150;11.030;2022-07-12T13:27:19;25.40;35.60
10911;DHT22;5508;49.150;11.030;2022-07-12T13:30:20;25.40;35.20
10911;DHT22;5508;49.150;11.030;2022-07-12T13:33:21;25.40;35.80
10911;DHT22;5508;49.150;11.030;2022-07-12T13:36:22;25.60;35.20
10911;DHT22;5508;49.150;11.030;2022-07-12T13:39:22;25.70;34.30
10911;DHT22;5508;49.150;11.030;2022-07-12T13:45:45;25.60;33.80
10911;DHT22;5508;49.150;11.030;2022-07-12T13:48:46;25.10;35.40
10911;DHT22;5508;49.150;11.030;2022-07-12T13:51:46;25.10;35.40
10911;DHT22;5508;49.150;11.030;2022-07-12T13:54:47;25.40;34.50
10911;DHT22;5508;49.150;11.030;2022-07-12T13:57:47;25.40;33.70
10911;DHT22;5508;49.150;11.030;2022-07-12T14:00:48;25.20;32.70
10911;DHT22;5508;49.150;11.030;2022-07-12T14:03:48;25.30;33.20
10911;DHT22;5508;49.150;11.030;2022-07-12T14:06:50;25.40;32.70
10911;DHT22;5508;49.150;11.030;2022-07-12T14:09:51;25.50;33.00
10911;DHT22;5508;49.150;11.030;2022-07-12T14:12:51;25.50;32.50
10911;DHT22;5508;49.150;11.030;2022-07-12T14:15:52;25.40;33.10
10911;DHT22;5508;49.150;11.030;2022-07-12T14:18:53;25.40;32.40
10911;DHT22;5508;49.150;11.030;2022-07-12T14:21:53;25.40;32.90
10911;DHT22;5508;49.150;11.030;2022-07-12T14:24:54;25.40;32.30
10911;DHT22;5508;49.150;11.030;2022-07-12T14:27:54;25.30;33.80
10911;DHT22;5508;49.150;11.030;2022-07-12T14:30:55;25.20;33.20
10911;DHT22;5508;49.150;11.030;2022-07-12T14:33:55;25.50;33.60
10911;DHT22;5508;49.150;11.030;2022-07-12T14:36:56;25.80;33.80
10911;DHT22;5508;49.150;11.030;2022-07-12T14:39:57;26.00;32.40
10911;DHT22;5508;49.150;11.030;2022-07-12T14:42:58;25.80;33.40
10911;DHT22;5508;49.150;11.030;2022-07-12T14:45:58;25.80;31.20
10911;DHT22;5508;49.150;11.030;2022-07-12T14:48:59;25.70;32.60
10911;DHT22;5508;49.150;11.030;2022-07-12T14:51:59;25.90;33.60
10911;DHT22;5508;49.150;11.030;2022-07-12T14:55:00;26.10;32.20
10911;DHT22;5508;49.150;11.030;2022-07-12T14:58:01;26.10;31.40
10911;DHT22;5508;49.150;11.030;2022-07-12T15:01:02;26.00;31.80
10911;DHT22;5508;49.150;11.030;2022-07-12T15:04:04;26.20;32.00
10911;DHT22;5508;49.150;11.030;2022-07-12T15:07:04;26.20;31.70
10911;DHT22;5508;49.150;11.030;2022-07-12T15:10:05;25.90;31.70
10911;DHT22;5508;49.150;11.030;2022-07-12T15:13:06;25.90;34.00
10911;DHT22;5508;49.150;11.030;2022-07-12T15:16:06;25.80;32.20
10911;DHT22;5508;49.150;11.030;2022-07-12T15:19:07;25.80;32.10
10911;DHT22;5508;49.150;11.030;2022-07-12T15:22:08;25.90;31.50
10911;DHT22;5508;49.150;11.030;2022-07-12T15:25:09;26.00;33.00
10911;DHT22;5508;49.150;11.030;2022-07-12T15:28:10;26.20;31.30
10911;DHT22;5508;49.150;11.030;2022-07-12T15:31:10;26.20;32.70
10911;DHT22;5508;49.150;11.030;2022-07-12T15:34:11;26.40;31.80
10911;DHT22;5508;49.150;11.030;2022-07-12T15:37:11;26.10;31.40
10911;DHT22;5508;49.150;11.030;2022-07-12T15:40:12;25.80;31.30
10911;DHT22;5508;49.150;11.030;2022-07-12T15:43:13;25.70;31.70
10911;DHT22;5508;49.150;11.030;2022-07-12T15:46:13;25.60;31.90
10911;DHT22;5508;49.150;11.030;2022-07-12T15:49:14;25.60;32.80
10911;DHT22;5508;49.150;11.030;2022-07-12T15:52:15;25.70;30.60
10911;DHT22;5508;49.150;11.030;2022-07-12T15:55:35;25.70;31.00
10911;DHT22;5508;49.150;11.030;2022-07-12T15:58:38;25.40;32.90
10911;DHT22;5508;49.150;11.030;2022-07-12T16:01:39;25.40;32.60
10911;DHT22;5508;49.150;11.030;2022-07-12T16:04:41;25.50;32.00
10911;DHT22;5508;49.150;11.030;2022-07-12T16:07:42;25.60;31.30
10911;DHT22;5508;49.150;11.030;2022-07-12T16:10:42;25.70;30.70
10911;DHT22;5508;49.150;11.030;2022-07-12T16:13:43;25.50;31.50
10911;DHT22;5508;49.150;11.030;2022-07-12T16:16:43;25.60;32.20
10911;DHT22;5508;49.150;11.030;2022-07-12T16:19:44;25.60;31.40
10911;DHT22;5508;49.150;11.030;2022-07-12T16:22:45;25.50;31.40
10911;DHT22;5508;49.150;11.030;2022-07-12T16:25:46;25.40;31.90
10911;DHT22;5508;49.150;11.030;2022-07-12T16:28:46;25.30;32.40
10911;DHT22;5508;49.150;11.030;2022-07-12T16:31:50;25.30;32.20
10911;DHT22;5508;49.150;11.030;2022-07-12T16:34:51;25.10;33.10
10911;DHT22;5508;49.150;11.030;2022-07-12T16:37:52;25.20;33.20
10911;DHT22;5508;49.150;11.030;2022-07-12T16:40:52;25.70;32.10
10911;DHT22;5508;49.150;11.030;2022-07-12T16:43:53;26.00;32.00
10911;DHT22;5508;49.150;11.030;2022-07-12T16:46:54;26.50;31.00
10911;DHT22;5508;49.150;11.030;2022-07-12T16:49:55;26.80;30.20
10911;DHT22;5508;49.150;11.030;2022-07-12T16:52:55;26.50;30.60
10911;DHT22;5508;49.150;11.030;2022-07-12T16:55:56;26.20;31.40
10911;DHT22;5508;49.150;11.030;2022-07-12T16:58:57;26.10;32.00
10911;DHT22;5508;49.150;11.030;2022-07-12T17:01:58;25.80;31.90
10911;DHT22;5508;49.150;11.030;2022-07-12T17:05:00;26.00;31.10
10911;DHT22;5508;49.150;11.030;2022-07-12T17:08:02;25.80;31.10
10911;DHT22;5508;49.150;11.030;2022-07-12T17:11:03;25.50;31.90
10911;DHT22;5508;49.150;11.030;2022-07-12T17:14:04;25.20;32.90
10911;DHT22;5508;49.150;11.030;2022-07-12T17:17:05;25.10;32.90
10911;DHT22;5508;49.150;11.030;2022-07-12T17:20:06;24.80;32.80
10911;DHT22;5508;49.150;11.030;2022-07-12T17:23:07;24.70;33.60
10911;DHT22;5508;49.150;11.030;2022-07-12T17:26:07;24.60;33.70
10911;DHT22;5508;49.150;11.030;2022-07-12T17:29:08;24.50;35.00
10911;DHT22;5508;49.150;11.030;2022-07-12T17:32:09;24.40;35.00
10911;DHT22;5508;49.150;11.030;2022-07-12T17:35:10;24.30;34.80
10911;DHT22;5508;49.150;11.030;2022-07-12T17:38:11;24.10;35.50
10911;DHT22;5508;49.150;11.030;2022-07-12T17:41:12;24.10;36.20
10911;DHT22;5508;49.150;11.030;2022-07-12T17:44:13;23.90;36.10
10911;DHT22;5508;49.150;11.030;2022-07-12T17:47:13;23.80;36.80
10911;DHT22;5508;49.150;11.030;2022-07-12T17:50:14;23.70;36.90
10911;DHT22;5508;49.150;11.030;2022-07-12T17:53:15;23.60;37.20
10911;DHT22;5508;49.150;11.030;2022-07-12T17:56:15;23.50;37.00
10911;DHT22;5508;49.150;11.030;2022-07-12T17:59:16;23.40;37.30
10911;DHT22;5508;49.150;11.030;2022-07-12T18:02:16;23.40;37.30
10911;DHT22;5508;49.150;11.030;2022-07-12T18:05:17;23.30;38.00
10911;DHT22;5508;49.150;11.030;2022-07-12T18:08:18;23.10;37.80
10911;DHT22;5508;49.150;11.030;2022-07-12T18:11:18;23.00;37.90
10911;DHT22;5508;49.150;11.030;2022-07-12T18:14:37;22.90;39.60
10911;DHT22;5508;49.150;11.030;2022-07-12T18:17:44;22.80;39.60
10911;DHT22;5508;49.150;11.030;2022-07-12T18:21:03;22.70;39.50
10911;DHT22;5508;49.150;11.030;2022-07-12T18:24:05;22.70;39.70
10911;DHT22;5508;49.150;11.030;2022-07-12T18:27:06;22.40;42.50
10911;DHT22;5508;49.150;11.030;2022-07-12T18:30:07;22.30;42.00
10911;DHT22;5508;49.150;11.030;2022-07-12T18:33:10;22.30;43.90
10911;DHT22;5508;49.150;11.030;2022-07-12T18:36:11;22.20;41.50
10911;DHT22;5508;49.150;11.030;2022-07-12T18:39:12;22.20;42.80
10911;DHT22;5508;49.150;11.030;2022-07-12T18:42:14;22.00;44.00
10911;DHT22;5508;49.150;11.030;2022-07-12T18:45:15;22.00;43.80
10911;DHT22;5508;49.150;11.030;2022-07-12T18:48:15;21.90;48.20
10911;DHT22;5508;49.150;11.030;2022-07-12T18:51:16;21.70;46.60
10911;DHT22;5508;49.150;11.030;2022-07-12T18:54:16;21.60;46.60
10911;DHT22;5508;49.150;11.030;2022-07-12T18:57:17;21.40;48.60
10911;DHT22;5508;49.150;11.030;2022-07-12T19:00:18;21.20;48.90
10911;DHT22;5508;49.150;11.030;2022-07-12T19:03:18;21.00;49.30
10911;DHT22;5508;49.150;11.030;2022-07-12T19:06:22;20.90;51.20
10911;DHT22;5508;49.150;11.030;2022-07-12T19:09:23;20.70;50.80
10911;DHT22;5508;49.150;11.030;2022-07-12T19:12:23;20.60;51.40
10911;DHT22;5508;49.150;11.030;2022-07-12T19:15:24;20.50;52.10
10911;DHT22;5508;49.150;11.030;2022-07-12T19:18:25;20.30;52.20
10911;DHT22;5508;49.150;11.030;2022-07-12T19:21:25;20.20;52.60
10911;DHT22;5508;49.150;11.030;2022-07-12T19:24:26;20.00;55.20
10911;DHT22;5508;49.150;11.030;2022-07-12T19:27:26;19.80;54.30